CheckWX is a tool to help pilots better visualize weather data.  It is not intended as a substitute for an official pre-flight weather briefing.

06:02:47 UTC

LJPZ TAF
Portoroz Airport
Portoroz, Slovenia
TAF LJPZ 310500Z 3106/3115 06010KT CAVOK TEMPO 3106/3115 06015KT

Mar-31@
06:00 UTC

Mar-31 @ 06:00 UTC

Mar-31@
15:00 UTC

Mar-31 @ 15:00 UTC

TAF LJPZ 310500Z 3106/3115 06010KT CAVOK
Wind
  • 060° at 10 KTS
Conditions
No significant weather
Cloud Levels
  • No significant clouds

Mar-31@
06:00 UTC

Mar-31 @ 06:00 UTC

Mar-31@
15:00 UTC

Mar-31 @ 15:00 UTC

TEMPO 3106/3115 06015KT

Temporary

Temporary Changes expected for less than half the time period

Wind
  • 060° at 15 KTS
Cloud Levels